Run Long — V3DI3 — position and weather

sailwx.info

Track history (hours):
 
Tides and Currents Weather Stations Pressure Air Temp Water Temp Dewpoint Dewpoint Depression Visibility Wind Speed Wind Dir Waves Ship Positions

Run Long

Last reported at 2018-Apr-21 10:29 UTC. Time now 2018-Apr-25 06:50 UTC.
Position N 31°46' E 121°03'.

Length 79 m; draft 5.6 m.

Type: Cargo ship. MMSI: 312999000.

Date/timePositionNaut miles runAvg speedWind from/ knotsBaromVisibWave heightAir tempDewpointWater temp
2018-Apr-21 10:29N 31°46' E 121°03'4 9.4
2018-Apr-21 10:00N 31°44' E 121°07'5 9.7
2018-Apr-21 09:30N 31°41' E 121°12'5 9.8
2018-Apr-21 09:00N 31°37' E 121°16'5 9.9
2018-Apr-21 08:30N 31°33' E 121°20'5 9.8
2018-Apr-21 08:00N 31°31' E 121°24'510.2
2018-Apr-21 07:30N 31°27' E 121°29'2810.1
2018-Apr-21 04:46N 31°09' E 121°53'410.0
2018-Apr-21 04:23N 31°07' E 121°57'4 9.7
2018-Apr-21 03:59N 31°05' E 122°01'5 9.5
2018-Apr-21 03:30N 31°04' E 122°06'510.0
2018-Apr-21 03:00N 31°03' E 122°12'5 9.4
2018-Apr-21 02:30N 31°03' E 122°17'3 0.2
2018-Apr-20 13:08N 31°00' E 122°19'4 7.8
2018-Apr-20 12:40N 31°01' E 122°23'23 7.8
2018-Apr-20 09:45N 31°01' E 122°50'2 8.1
2018-Apr-20 09:27N 31°02' E 122°53'4 8.2
2018-Apr-20 08:57N 31°04' E 122°57'4 8.1
2018-Apr-20 08:30N 31°05' E 123°01'4 8.4
2018-Apr-20 07:59N 31°07' E 123°06'6 8.1
2018-Apr-20 07:17N 31°10' E 123°11'96 8.8
2018-Apr-19 20:22N 31°48' E 124°54'33 8.2
2018-Apr-19 16:22N 32°03' E 125°28'209 8.9
2018-Apr-18 16:47N 33°28' E 129°16'3 8.2
2018-Apr-18 16:25N 33°29' E 129°19'3 8.3
2018-Apr-18 16:00N 33°30' E 129°23'5 8.2
2018-Apr-18 15:25N 33°32' E 129°28'6 8.4
2018-Apr-18 14:46N 33°35' E 129°34'2 8.5
2018-Apr-18 14:30N 33°35' E 129°37'5 8.8
2018-Apr-18 13:59N 33°37' E 129°42'4 8.5
2018-Apr-18 13:30N 33°39' E 129°47'6 9.1
2018-Apr-18 12:49N 33°41' E 129°54'3 9.3
2018-Apr-18 12:29N 33°42' E 129°57'5 9.5
2018-Apr-18 11:56N 33°45' E 130°02'5 9.5
2018-Apr-18 11:26N 33°48' E 130°07'4 9.6
2018-Apr-18 11:00N 33°50' E 130°11'5 9.4
2018-Apr-18 10:30N 33°53' E 130°16'5 9.2
2018-Apr-18 09:59N 33°55' E 130°21'4 9.0
2018-Apr-18 09:30N 33°57' E 130°25'4 8.8
2018-Apr-18 09:00N 33°59' E 130°30'4 8.5
2018-Apr-18 08:30N 34°00' E 130°35'4 8.4
2018-Apr-18 08:00N 34°02' E 130°39'4 8.3
2018-Apr-18 07:30N 34°03' E 130°44'4 8.0
2018-Apr-18 07:00N 34°02' E 130°49'4 8.4
2018-Apr-18 06:30N 33°59' E 130°53'3 7.0
2018-Apr-18 06:00N 33°56' E 130°53'2 4.7
2018-Apr-18 05:30N 33°55' E 130°56'3 6.2
2018-Apr-18 05:00N 33°58' E 130°57'3 7.0
2018-Apr-18 04:30N 33°58' E 131°01'4 8.5
2018-Apr-18 04:00N 33°56' E 131°06'4 8.4
2018-Apr-18 03:30N 33°54' E 131°10'4 8.5
2018-Apr-18 03:00N 33°52' E 131°15'4 8.5
2018-Apr-18 02:30N 33°51' E 131°20'4 8.6
2018-Apr-18 02:00N 33°50' E 131°25'4 8.7
2018-Apr-18 01:30N 33°49' E 131°30'4 8.9
2018-Apr-18 01:00N 33°48' E 131°35'4 9.0
2018-Apr-18 00:30N 33°47' E 131°40'5 9.0
2018-Apr-18 00:00N 33°46' E 131°46'5 9.2
2018-Apr-17 23:30N 33°45' E 131°51'7 9.5
2018-Apr-17 22:47N 33°44' E 131°59'3 9.0
2018-Apr-17 22:30N 33°43' E 132°02'7 8.7
2018-Apr-17 21:44N 33°43' E 132°10'2 9.2
2018-Apr-17 21:30N 33°43' E 132°12'9 9.2
2018-Apr-17 20:30N 33°46' E 132°23'5 9.8
2018-Apr-17 20:00N 33°48' E 132°28'5 9.9
2018-Apr-17 19:28N 33°51' E 132°34'510.4
2018-Apr-17 18:56N 33°55' E 132°38'511.4
2018-Apr-17 18:30N 33°58' E 132°43'17 9.9
2018-Apr-17 16:48N 34°09' E 132°58'  
2018-Apr-11 15:17N 34°01' E 132°46'2 8.0
2018-Apr-11 15:00N 33°59' E 132°44'4 8.0
2018-Apr-11 14:30N 33°56' E 132°41'4 8.1
2018-Apr-11 13:59N 33°54' E 132°37'6 8.6
2018-Apr-11 13:19N 33°49' E 132°33'3 8.5
2018-Apr-11 13:00N 33°47' E 132°30'  
Track history (hours):
 
Tides and Currents Weather Stations Pressure Air Temp Water Temp Dewpoint Dewpoint Depression Visibility Wind Speed Wind Dir Waves Ship Positions

Run Long

Last reported at 2018-Apr-21 10:29 UTC. Time now 2018-Apr-25 06:50 UTC.
Position N 31°46' E 121°03'.

Length 79 m; draft 5.6 m.

Type: Cargo ship. MMSI: 312999000.

Date/timePositionNaut miles runAvg speedWind from/ knotsBaromVisibWave heightAir tempDewpointWater temp
2018-Apr-21 10:29N 31°46' E 121°03'4 9.4
2018-Apr-21 10:00N 31°44' E 121°07'5 9.7
2018-Apr-21 09:30N 31°41' E 121°12'5 9.8
2018-Apr-21 09:00N 31°37' E 121°16'5 9.9
2018-Apr-21 08:30N 31°33' E 121°20'5 9.8
2018-Apr-21 08:00N 31°31' E 121°24'510.2
2018-Apr-21 07:30N 31°27' E 121°29'2810.1
2018-Apr-21 04:46N 31°09' E 121°53'410.0
2018-Apr-21 04:23N 31°07' E 121°57'4 9.7
2018-Apr-21 03:59N 31°05' E 122°01'5 9.5
2018-Apr-21 03:30N 31°04' E 122°06'510.0
2018-Apr-21 03:00N 31°03' E 122°12'5 9.4
2018-Apr-21 02:30N 31°03' E 122°17'3 0.2
2018-Apr-20 13:08N 31°00' E 122°19'4 7.8
2018-Apr-20 12:40N 31°01' E 122°23'23 7.8
2018-Apr-20 09:45N 31°01' E 122°50'2 8.1
2018-Apr-20 09:27N 31°02' E 122°53'4 8.2
2018-Apr-20 08:57N 31°04' E 122°57'4 8.1
2018-Apr-20 08:30N 31°05' E 123°01'4 8.4
2018-Apr-20 07:59N 31°07' E 123°06'6 8.1
2018-Apr-20 07:17N 31°10' E 123°11'96 8.8
2018-Apr-19 20:22N 31°48' E 124°54'33 8.2
2018-Apr-19 16:22N 32°03' E 125°28'209 8.9
2018-Apr-18 16:47N 33°28' E 129°16'3 8.2
2018-Apr-18 16:25N 33°29' E 129°19'3 8.3
2018-Apr-18 16:00N 33°30' E 129°23'5 8.2
2018-Apr-18 15:25N 33°32' E 129°28'6 8.4
2018-Apr-18 14:46N 33°35' E 129°34'2 8.5
2018-Apr-18 14:30N 33°35' E 129°37'5 8.8
2018-Apr-18 13:59N 33°37' E 129°42'4 8.5
2018-Apr-18 13:30N 33°39' E 129°47'6 9.1
2018-Apr-18 12:49N 33°41' E 129°54'3 9.3
2018-Apr-18 12:29N 33°42' E 129°57'5 9.5
2018-Apr-18 11:56N 33°45' E 130°02'5 9.5
2018-Apr-18 11:26N 33°48' E 130°07'4 9.6
2018-Apr-18 11:00N 33°50' E 130°11'5 9.4
2018-Apr-18 10:30N 33°53' E 130°16'5 9.2
2018-Apr-18 09:59N 33°55' E 130°21'4 9.0
2018-Apr-18 09:30N 33°57' E 130°25'4 8.8
2018-Apr-18 09:00N 33°59' E 130°30'4 8.5
2018-Apr-18 08:30N 34°00' E 130°35'4 8.4
2018-Apr-18 08:00N 34°02' E 130°39'4 8.3
2018-Apr-18 07:30N 34°03' E 130°44'4 8.0
2018-Apr-18 07:00N 34°02' E 130°49'4 8.4
2018-Apr-18 06:30N 33°59' E 130°53'3 7.0
2018-Apr-18 06:00N 33°56' E 130°53'2 4.7
2018-Apr-18 05:30N 33°55' E 130°56'3 6.2
2018-Apr-18 05:00N 33°58' E 130°57'3 7.0
2018-Apr-18 04:30N 33°58' E 131°01'4 8.5
2018-Apr-18 04:00N 33°56' E 131°06'4 8.4
2018-Apr-18 03:30N 33°54' E 131°10'4 8.5
2018-Apr-18 03:00N 33°52' E 131°15'4 8.5
2018-Apr-18 02:30N 33°51' E 131°20'4 8.6
2018-Apr-18 02:00N 33°50' E 131°25'4 8.7
2018-Apr-18 01:30N 33°49' E 131°30'4 8.9
2018-Apr-18 01:00N 33°48' E 131°35'4 9.0
2018-Apr-18 00:30N 33°47' E 131°40'5 9.0
2018-Apr-18 00:00N 33°46' E 131°46'5 9.2
2018-Apr-17 23:30N 33°45' E 131°51'7 9.5
2018-Apr-17 22:47N 33°44' E 131°59'3 9.0
2018-Apr-17 22:30N 33°43' E 132°02'7 8.7
2018-Apr-17 21:44N 33°43' E 132°10'2 9.2
2018-Apr-17 21:30N 33°43' E 132°12'9 9.2
2018-Apr-17 20:30N 33°46' E 132°23'5 9.8
2018-Apr-17 20:00N 33°48' E 132°28'5 9.9
2018-Apr-17 19:28N 33°51' E 132°34'510.4
2018-Apr-17 18:56N 33°55' E 132°38'511.4
2018-Apr-17 18:30N 33°58' E 132°43'17 9.9
2018-Apr-17 16:48N 34°09' E 132°58'  
2018-Apr-11 15:17N 34°01' E 132°46'2 8.0
2018-Apr-11 15:00N 33°59' E 132°44'4 8.0
2018-Apr-11 14:30N 33°56' E 132°41'4 8.1
2018-Apr-11 13:59N 33°54' E 132°37'6 8.6
2018-Apr-11 13:19N 33°49' E 132°33'3 8.5
2018-Apr-11 13:00N 33°47' E 132°30'  

Dump ship's entire track history